createdAt,value
2023-04-15T00:01:45.218Z,6.50
2023-04-15T00:04:13.209Z,5.20
2023-04-15T00:06:41.112Z,5.90
2023-04-15T00:09:09.000Z,6.30
2023-04-15T00:11:36.753Z,6.80
2023-04-15T00:14:04.653Z,5.90
2023-04-15T00:16:32.606Z,5.60
2023-04-15T00:19:00.666Z,5.50
2023-04-15T00:21:29.167Z,5.10
2023-04-15T00:23:56.940Z,6.20
2023-04-15T00:26:24.655Z,6.00
2023-04-15T00:28:52.400Z,5.90
2023-04-15T00:31:21.020Z,6.20
2023-04-15T00:33:49.069Z,6.00
2023-04-15T00:36:16.917Z,6.10
2023-04-15T00:38:44.716Z,5.70
2023-04-15T00:41:13.074Z,6.50
2023-04-15T00:43:41.123Z,6.50
2023-04-15T00:46:10.767Z,7.00
2023-04-15T00:48:39.314Z,6.40
2023-04-15T00:51:07.754Z,6.70
2023-04-15T00:53:35.871Z,7.20
2023-04-15T00:56:03.942Z,6.40
2023-04-15T00:58:32.038Z,6.30
2023-04-15T01:01:00.297Z,7.10
2023-04-15T01:03:29.798Z,6.80
2023-04-15T01:05:58.863Z,6.60
2023-04-15T01:08:29.918Z,7.20
2023-04-15T01:10:59.362Z,6.90
2023-04-15T01:13:28.023Z,7.60
2023-04-15T01:15:57.967Z,7.30
2023-04-15T01:18:26.194Z,6.80
2023-04-15T01:20:54.286Z,6.70
2023-04-15T01:23:23.364Z,7.10
2023-04-15T01:25:53.643Z,7.00
2023-04-15T01:28:21.464Z,8.10
2023-04-15T01:30:49.319Z,7.90
2023-04-15T01:33:17.181Z,7.00
2023-04-15T01:35:45.043Z,7.10
2023-04-15T01:38:13.731Z,7.20
2023-04-15T01:40:41.490Z,7.40
2023-04-15T01:43:09.563Z,7.20
2023-04-15T01:45:37.740Z,7.90
2023-04-15T01:48:05.980Z,6.40
2023-04-15T01:50:34.162Z,8.20
2023-04-15T01:53:02.326Z,7.10
2023-04-15T01:55:31.144Z,7.60
2023-04-15T01:57:58.909Z,6.90
2023-04-15T02:00:26.884Z,7.40
2023-04-15T02:02:54.800Z,7.90
2023-04-15T02:05:22.811Z,7.40
2023-04-15T02:07:50.626Z,8.40
2023-04-15T02:10:18.545Z,8.90
2023-04-15T02:12:46.752Z,8.50
2023-04-15T02:15:14.682Z,9.30
2023-04-15T02:17:46.001Z,8.60
2023-04-15T02:20:13.896Z,8.70
2023-04-15T02:22:41.766Z,9.10
2023-04-15T02:25:10.450Z,8.60
2023-04-15T02:27:38.325Z,8.80
2023-04-15T02:30:07.491Z,8.80
2023-04-15T02:32:35.553Z,8.70
2023-04-15T02:35:05.802Z,7.80
2023-04-15T02:37:40.843Z,7.60
2023-04-15T02:40:13.619Z,9.30
2023-04-15T02:42:42.848Z,9.30
2023-04-15T02:45:12.746Z,10.00
2023-04-15T02:47:41.627Z,8.90
2023-04-15T02:50:12.709Z,8.00
2023-04-15T02:52:42.074Z,9.00
2023-04-15T02:55:10.364Z,10.10
2023-04-15T02:57:39.461Z,9.80
2023-04-15T03:00:09.868Z,9.80
2023-04-15T03:02:39.564Z,9.20
2023-04-15T03:05:11.745Z,10.30
2023-04-15T03:07:41.191Z,9.00
2023-04-15T03:10:10.616Z,8.30
2023-04-15T03:12:38.419Z,9.20
2023-04-15T03:15:06.933Z,9.90
2023-04-15T03:17:34.789Z,8.80
2023-04-15T03:20:06.592Z,9.70
2023-04-15T03:22:34.529Z,9.20
2023-04-15T03:25:02.360Z,10.40
2023-04-15T03:27:30.229Z,8.90
2023-04-15T03:29:57.963Z,8.30
2023-04-15T03:32:26.084Z,9.20
2023-04-15T03:34:53.920Z,9.20
2023-04-15T03:37:21.854Z,10.10
2023-04-15T03:39:49.755Z,9.60
2023-04-15T03:42:17.654Z,8.20
2023-04-15T03:44:45.456Z,10.20
2023-04-15T03:47:13.353Z,9.90
2023-04-15T03:49:41.586Z,9.80
2023-04-15T03:52:09.610Z,10.90
2023-04-15T03:54:37.459Z,9.90
2023-04-15T03:57:05.171Z,9.50
2023-04-15T03:59:32.920Z,9.20
2023-04-15T04:02:01.026Z,9.40
2023-04-15T04:04:29.089Z,9.80
2023-04-15T04:06:56.991Z,9.30
2023-04-15T04:09:24.861Z,10.70
2023-04-15T04:11:52.734Z,10.00
2023-04-15T04:14:20.690Z,9.50
2023-04-15T04:16:48.490Z,9.80
2023-04-15T04:19:19.666Z,9.00
2023-04-15T04:21:47.575Z,10.00
2023-04-15T04:24:15.736Z,10.40
2023-04-15T04:26:44.116Z,10.10
2023-04-15T04:29:11.979Z,10.60
2023-04-15T04:31:39.871Z,9.60
2023-04-15T04:34:08.017Z,8.70
2023-04-15T04:36:36.103Z,8.90
2023-04-15T04:39:04.199Z,10.20
2023-04-15T04:41:32.538Z,9.40
2023-04-15T04:44:00.509Z,8.70
2023-04-15T04:46:28.393Z,8.50
2023-04-15T04:48:56.245Z,9.50
2023-04-15T04:51:24.201Z,9.80
2023-04-15T04:53:52.069Z,9.10
2023-04-15T04:56:19.946Z,8.80
2023-04-15T04:58:47.800Z,9.70
2023-04-15T05:01:15.769Z,9.00
2023-04-15T05:03:43.850Z,8.40
2023-04-15T05:06:11.759Z,8.60
2023-04-15T05:08:41.015Z,9.50
2023-04-15T05:11:09.295Z,8.60
2023-04-15T05:13:38.913Z,9.00
2023-04-15T05:16:07.772Z,9.50
2023-04-15T05:18:35.771Z,9.20
2023-04-15T05:21:03.729Z,9.30
2023-04-15T05:23:31.720Z,8.70
2023-04-15T05:25:59.559Z,9.30
2023-04-15T05:28:27.631Z,9.80
2023-04-15T05:30:55.823Z,10.20
2023-04-15T05:33:23.772Z,9.10
2023-04-15T05:35:51.997Z,9.20
2023-04-15T05:38:19.811Z,9.20
2023-04-15T05:40:47.879Z,9.30
2023-04-15T05:43:15.848Z,9.40
2023-04-15T05:45:43.610Z,10.20
2023-04-15T05:48:11.399Z,8.80
2023-04-15T05:50:42.184Z,10.70
2023-04-15T05:53:10.096Z,8.20
2023-04-15T05:55:37.939Z,8.30
2023-04-15T05:58:05.808Z,9.40
2023-04-15T06:00:33.889Z,9.50
2023-04-15T06:03:01.909Z,9.70
2023-04-15T06:05:30.121Z,9.10
2023-04-15T06:07:57.990Z,9.70
2023-04-15T06:10:25.921Z,8.20
2023-04-15T06:12:54.359Z,9.80
2023-04-15T06:15:22.196Z,9.90
2023-04-15T06:17:50.136Z,8.20
2023-04-15T06:20:18.031Z,8.10
2023-04-15T06:22:45.827Z,8.60
2023-04-15T06:25:14.274Z,9.70
2023-04-15T06:27:42.250Z,8.70
2023-04-15T06:30:10.650Z,8.70
2023-04-15T06:32:38.559Z,9.50
2023-04-15T06:35:06.560Z,9.90
2023-04-15T06:37:34.424Z,8.70
2023-04-15T06:40:02.320Z,8.70
2023-04-15T06:42:30.352Z,10.10
2023-04-15T06:44:58.224Z,8.00
2023-04-15T06:47:26.303Z,8.40
2023-04-15T06:49:54.563Z,8.90
2023-04-15T06:52:22.432Z,8.40
2023-04-15T06:54:50.203Z,7.90
2023-04-15T06:57:17.959Z,8.50
2023-04-15T06:59:46.336Z,9.90
2023-04-15T07:02:14.951Z,10.00
2023-04-15T07:04:42.782Z,10.50
2023-04-15T07:07:10.604Z,12.30
2023-04-15T07:09:38.788Z,8.80
2023-04-15T07:12:06.643Z,13.50
2023-04-15T07:14:34.513Z,13.70
2023-04-15T07:17:02.925Z,16.10
2023-04-15T07:19:30.770Z,21.80
2023-04-15T07:21:58.546Z,23.70
2023-04-15T07:24:27.094Z,13.10
2023-04-15T07:26:59.416Z,11.70
2023-04-15T07:29:28.664Z,16.40
2023-04-15T07:31:57.347Z,14.10
2023-04-15T07:34:26.032Z,12.30
2023-04-15T07:36:53.922Z,11.20
2023-04-15T07:39:21.866Z,14.70
2023-04-15T07:41:49.957Z,13.80
2023-04-15T07:44:17.808Z,9.00
2023-04-15T07:46:45.674Z,7.20
2023-04-15T07:49:13.654Z,6.20
2023-04-15T07:51:42.527Z,6.50
2023-04-15T07:54:16.549Z,7.70
2023-04-15T07:56:44.407Z,7.30
2023-04-15T07:59:13.112Z,6.10
2023-04-15T08:01:41.059Z,7.40
2023-04-15T08:04:09.354Z,6.50
2023-04-15T08:06:40.108Z,6.50
2023-04-15T08:09:08.452Z,6.90
2023-04-15T08:11:36.853Z,7.30
2023-04-15T08:14:04.743Z,9.80
2023-04-15T08:16:33.400Z,10.90
2023-04-15T08:19:02.489Z,8.00
2023-04-15T08:21:41.264Z,7.60
2023-04-15T08:24:09.396Z,9.20
2023-04-15T08:26:38.481Z,11.10
2023-04-15T08:29:06.875Z,7.70
2023-04-15T08:31:34.805Z,8.70
2023-04-15T08:34:03.012Z,10.40
2023-04-15T08:36:32.576Z,10.10
2023-04-15T08:39:05.191Z,8.90
2023-04-15T08:41:41.752Z,8.20
2023-04-15T08:44:11.001Z,4.60
2023-04-15T08:46:40.101Z,5.30
2023-04-15T08:49:13.684Z,5.50
2023-04-15T08:51:43.408Z,5.10
2023-04-15T08:54:14.510Z,5.20
2023-04-15T08:56:43.156Z,4.50
2023-04-15T08:59:13.085Z,5.00
2023-04-15T09:01:41.683Z,4.60
2023-04-15T09:04:13.097Z,3.70
2023-04-15T09:06:41.835Z,4.50
2023-04-15T09:09:09.892Z,3.90
2023-04-15T09:11:37.765Z,3.60
2023-04-15T09:14:05.624Z,4.30
2023-04-15T09:17:01.070Z,4.20
2023-04-15T09:19:29.363Z,4.00
2023-04-15T09:22:00.152Z,4.00
2023-04-15T09:24:39.383Z,4.40
2023-04-15T09:27:07.750Z,5.70
2023-04-15T09:29:35.647Z,7.40
2023-04-15T09:32:11.502Z,6.40
2023-04-15T09:34:39.355Z,5.40
2023-04-15T09:37:08.061Z,4.40
2023-04-15T09:39:47.690Z,6.40
2023-04-15T09:42:17.685Z,7.30
2023-04-15T09:44:45.594Z,7.70
2023-04-15T09:47:28.271Z,9.20
2023-04-15T09:49:57.735Z,8.20
2023-04-15T09:52:26.130Z,7.30
2023-04-15T09:54:56.616Z,7.10
2023-04-15T09:57:25.065Z,9.80
2023-04-15T09:59:53.414Z,8.60
2023-04-15T10:02:22.078Z,9.80
2023-04-15T10:04:51.986Z,10.20
2023-04-15T10:07:22.511Z,8.40
2023-04-15T10:09:51.449Z,6.00
2023-04-15T10:12:20.117Z,8.90
2023-04-15T10:14:58.974Z,11.90
2023-04-15T10:17:31.640Z,18.70
2023-04-15T10:20:02.412Z,16.20
2023-04-15T10:22:31.563Z,12.20
2023-04-15T10:25:02.444Z,7.80
2023-04-15T10:27:31.281Z,14.70
2023-04-15T10:30:01.129Z,7.00
2023-04-15T10:32:29.919Z,7.50
2023-04-15T10:34:58.793Z,7.40
2023-04-15T10:37:37.690Z,5.40
2023-04-15T10:40:32.567Z,4.70
2023-04-15T10:43:02.442Z,4.70
2023-04-15T10:45:36.896Z,3.50
2023-04-15T10:48:07.720Z,4.30
2023-04-15T10:50:37.789Z,4.10
2023-04-15T10:53:05.885Z,4.50
2023-04-15T10:55:34.696Z,5.60
2023-04-15T10:58:03.279Z,5.10
2023-04-15T11:00:32.825Z,5.50
2023-04-15T11:03:08.485Z,4.60
2023-04-15T11:05:39.401Z,4.40
2023-04-15T11:08:08.897Z,3.80
2023-04-15T11:10:36.768Z,3.80
2023-04-15T11:13:16.849Z,3.80
2023-04-15T11:15:46.525Z,4.30
2023-04-15T11:18:30.265Z,4.00
2023-04-15T11:21:01.540Z,3.80
2023-04-15T11:23:38.146Z,3.40
2023-04-15T11:26:15.466Z,3.70
2023-04-15T11:28:45.420Z,3.60
2023-04-15T11:31:18.428Z,3.10
2023-04-15T11:34:01.581Z,3.40
2023-04-15T11:36:32.370Z,3.90
2023-04-15T11:39:00.971Z,4.00
2023-04-15T11:41:29.696Z,3.70
2023-04-15T11:43:57.508Z,3.80
2023-04-15T11:46:32.224Z,3.30
2023-04-15T11:49:00.464Z,3.20
2023-04-15T11:51:33.971Z,3.20
2023-04-15T11:54:02.146Z,3.40
2023-04-15T11:56:31.343Z,3.60
2023-04-15T11:59:00.171Z,4.30
2023-04-15T12:01:32.591Z,3.40
2023-04-15T12:04:01.883Z,4.10
2023-04-15T12:06:36.987Z,6.10
2023-04-15T12:09:12.099Z,3.50
2023-04-15T12:11:50.032Z,3.00
2023-04-15T12:14:30.844Z,2.80
2023-04-15T12:17:05.025Z,3.00
2023-04-15T12:19:38.051Z,3.20
2023-04-15T12:22:11.067Z,2.30
2023-04-15T12:24:40.022Z,2.40
2023-04-15T12:27:11.391Z,2.30
2023-04-15T12:29:42.138Z,2.20
2023-04-15T12:32:12.607Z,2.20
2023-04-15T12:34:42.114Z,1.70
2023-04-15T12:37:13.368Z,2.00
2023-04-15T12:39:43.527Z,2.00
2023-04-15T12:42:12.465Z,1.80
2023-04-15T12:44:40.473Z,2.30
2023-04-15T12:47:09.580Z,1.90
2023-04-15T12:49:38.422Z,2.20
2023-04-15T12:52:06.900Z,3.40
2023-04-15T12:54:36.258Z,6.30
2023-04-15T12:57:06.760Z,4.20
2023-04-15T12:59:36.638Z,5.10
2023-04-15T13:02:04.726Z,3.40
2023-04-15T13:04:33.058Z,3.00
2023-04-15T13:07:02.318Z,3.20
2023-04-15T13:09:30.373Z,3.30
2023-04-15T13:11:58.532Z,2.80
2023-04-15T13:14:27.234Z,3.70
2023-04-15T13:16:55.188Z,2.70
2023-04-15T13:19:23.075Z,2.60
2023-04-15T13:21:51.184Z,2.70
2023-04-15T13:24:18.986Z,2.70
2023-04-15T13:26:48.525Z,3.60
2023-04-15T13:29:17.527Z,4.00
2023-04-15T13:31:45.632Z,3.10
2023-04-15T13:34:13.622Z,3.50
2023-04-15T13:36:42.005Z,2.80
2023-04-15T13:39:09.862Z,2.80
2023-04-15T13:41:37.735Z,3.00
2023-04-15T13:44:06.498Z,2.90
2023-04-15T13:46:34.611Z,2.80
2023-04-15T13:49:02.558Z,3.00
2023-04-15T13:51:31.235Z,3.00
2023-04-15T13:53:59.724Z,3.00
2023-04-15T13:56:27.689Z,3.00
2023-04-15T13:58:59.076Z,3.00
2023-04-15T14:01:27.526Z,2.40
2023-04-15T14:03:56.304Z,2.90
2023-04-15T14:06:24.859Z,2.60
2023-04-15T14:08:53.456Z,2.40
2023-04-15T14:11:21.620Z,2.60
2023-04-15T14:13:49.745Z,4.20
2023-04-15T14:16:17.555Z,2.30
2023-04-15T14:18:48.504Z,2.10
2023-04-15T14:21:16.885Z,3.20
2023-04-15T14:23:44.749Z,3.40
2023-04-15T14:26:14.066Z,2.50
2023-04-15T14:28:43.044Z,2.70
2023-04-15T14:31:11.218Z,2.50
2023-04-15T14:33:39.086Z,3.00
2023-04-15T14:36:08.111Z,2.70
2023-04-15T14:38:40.263Z,2.50
2023-04-15T14:41:09.019Z,3.00
2023-04-15T14:43:36.982Z,4.30
2023-04-15T14:46:05.091Z,2.40
2023-04-15T14:48:33.250Z,1.90
2023-04-15T14:51:01.315Z,2.10
2023-04-15T14:53:29.481Z,2.40
2023-04-15T14:55:57.332Z,2.30
2023-04-15T14:58:25.467Z,2.60
2023-04-15T15:00:53.402Z,2.60
2023-04-15T15:03:21.376Z,2.50
2023-04-15T15:05:49.327Z,2.10
2023-04-15T15:08:17.306Z,2.20
2023-04-15T15:10:49.771Z,1.90
2023-04-15T15:13:19.103Z,2.20
2023-04-15T15:15:49.454Z,2.40
2023-04-15T15:18:19.419Z,1.80
2023-04-15T15:20:47.858Z,2.20
2023-04-15T15:23:16.158Z,2.60
2023-04-15T15:25:45.967Z,2.40
2023-04-15T15:28:13.856Z,2.30
2023-04-15T15:30:41.704Z,2.30
2023-04-15T15:33:09.570Z,2.40
2023-04-15T15:35:37.539Z,2.60
2023-04-15T15:38:06.439Z,2.30
2023-04-15T15:40:34.239Z,2.50
2023-04-15T15:43:02.013Z,2.40
2023-04-15T15:45:30.640Z,2.40
2023-04-15T15:47:59.391Z,1.90
2023-04-15T15:50:27.596Z,2.30
2023-04-15T15:52:55.693Z,1.90
2023-04-15T15:55:25.379Z,2.20
2023-04-15T15:57:54.515Z,2.40
2023-04-15T16:00:23.382Z,2.40
2023-04-15T16:03:06.895Z,2.70
2023-04-15T16:05:36.184Z,2.00
2023-04-15T16:08:04.566Z,2.40
2023-04-15T16:10:32.538Z,2.10
2023-04-15T16:13:00.614Z,1.90
2023-04-15T16:15:28.683Z,2.30
2023-04-15T16:17:56.824Z,1.80
2023-04-15T16:20:24.693Z,1.90
2023-04-15T16:22:52.533Z,2.20
2023-04-15T16:25:20.581Z,2.00
2023-04-15T16:28:00.799Z,2.00
2023-04-15T16:30:37.024Z,2.20
2023-04-15T16:33:08.528Z,2.20
2023-04-15T16:35:36.379Z,2.10
2023-04-15T16:38:04.244Z,2.00
2023-04-15T16:40:33.060Z,1.90
2023-04-15T16:43:00.908Z,2.30
2023-04-15T16:45:28.767Z,1.60
2023-04-15T16:47:57.073Z,2.00
2023-04-15T16:50:25.216Z,1.80
2023-04-15T16:52:53.203Z,2.40
2023-04-15T16:55:21.169Z,2.00
2023-04-15T16:58:01.506Z,2.10
2023-04-15T17:00:32.153Z,2.00
2023-04-15T17:03:03.768Z,2.30
2023-04-15T17:05:31.834Z,1.90
2023-04-15T17:07:59.737Z,1.90
2023-04-15T17:10:28.407Z,2.30
2023-04-15T17:12:57.210Z,2.20
2023-04-15T17:15:25.548Z,2.30
2023-04-15T17:17:53.738Z,2.10
2023-04-15T17:20:22.090Z,2.70
2023-04-15T17:22:50.221Z,2.50
2023-04-15T17:25:18.575Z,2.70
2023-04-15T17:27:46.554Z,2.30
2023-04-15T17:30:14.412Z,2.80
2023-04-15T17:32:42.359Z,2.70
2023-04-15T17:35:10.742Z,3.20
2023-04-15T17:37:39.041Z,2.90
2023-04-15T17:40:08.761Z,3.10
2023-04-15T17:42:36.738Z,3.10
2023-04-15T17:45:05.057Z,2.60
2023-04-15T17:47:32.941Z,3.10
2023-04-15T17:50:01.139Z,3.10
2023-04-15T17:52:29.009Z,2.90
2023-04-15T17:54:57.073Z,2.50
2023-04-15T17:57:25.442Z,2.80
2023-04-15T17:59:53.235Z,2.90
2023-04-15T18:02:21.145Z,2.90
2023-04-15T18:04:49.508Z,2.70
2023-04-15T18:07:17.455Z,2.70
2023-04-15T18:09:46.018Z,2.70
2023-04-15T18:12:14.074Z,2.70
2023-04-15T18:14:41.990Z,2.90
2023-04-15T18:17:09.900Z,2.90
2023-04-15T18:19:37.766Z,2.60
2023-04-15T18:22:07.074Z,2.10
2023-04-15T18:24:35.427Z,2.80
2023-04-15T18:27:03.864Z,2.50
2023-04-15T18:29:31.791Z,2.70
2023-04-15T18:32:00.487Z,2.90
2023-04-15T18:34:29.717Z,2.50
2023-04-15T18:36:58.508Z,2.90
2023-04-15T18:39:27.474Z,2.70
2023-04-15T18:41:56.420Z,2.40
2023-04-15T18:44:24.521Z,2.70
2023-04-15T18:46:52.393Z,3.00
2023-04-15T19:03:19.635Z,2.40
2023-04-15T19:05:47.766Z,2.60
2023-04-15T19:08:15.513Z,2.70
2023-04-15T19:10:43.264Z,2.60
2023-04-15T19:13:11.056Z,2.80
2023-04-15T19:15:38.699Z,2.70
2023-04-15T19:18:10.476Z,3.20
2023-04-15T19:20:39.986Z,2.90
2023-04-15T19:23:08.360Z,2.50
2023-04-15T19:25:37.047Z,3.30
2023-04-15T19:28:05.034Z,3.00
2023-04-15T19:30:33.106Z,3.60
2023-04-15T19:33:00.820Z,3.10
2023-04-15T19:35:28.609Z,3.30
2023-04-15T19:37:56.370Z,3.10
2023-04-15T19:40:24.230Z,3.30
2023-04-15T19:42:51.900Z,3.40
2023-04-15T19:45:19.910Z,2.70
2023-04-15T19:47:48.074Z,2.80
2023-04-15T19:50:41.377Z,3.30
2023-04-15T19:53:14.333Z,10.80
2023-04-15T19:55:45.450Z,8.80
2023-04-15T19:58:14.586Z,2.70
2023-04-15T20:00:42.516Z,2.40
2023-04-15T20:03:10.819Z,3.20
2023-04-15T20:05:38.710Z,2.40
2023-04-15T20:08:06.600Z,3.80
2023-04-15T20:10:35.393Z,2.60
2023-04-15T20:13:03.156Z,3.10
2023-04-15T20:15:30.873Z,2.50
2023-04-15T20:18:01.871Z,3.00
2023-04-15T20:20:31.653Z,2.90
2023-04-15T20:22:59.292Z,3.10
2023-04-15T20:25:27.040Z,3.30
2023-04-15T20:27:54.706Z,2.80
2023-04-15T20:30:22.507Z,2.60
2023-04-15T20:32:50.362Z,2.70
2023-04-15T20:35:18.171Z,2.90
2023-04-15T20:37:45.961Z,2.90
2023-04-15T20:40:14.511Z,3.00
2023-04-15T20:42:43.813Z,2.60
2023-04-15T20:45:11.770Z,2.60
2023-04-15T20:47:39.451Z,2.80
2023-04-15T20:50:08.170Z,2.90
2023-04-15T20:52:36.268Z,3.00
2023-04-15T20:55:04.733Z,3.00
2023-04-15T20:57:32.362Z,2.80
2023-04-15T21:00:00.040Z,3.00
2023-04-15T21:02:27.913Z,2.50
2023-04-15T21:04:55.999Z,2.70
2023-04-15T21:07:23.664Z,2.70
2023-04-15T21:09:51.499Z,3.30
2023-04-15T21:12:19.193Z,2.90
2023-04-15T21:14:46.937Z,2.40
2023-04-15T21:17:14.742Z,2.50
2023-04-15T21:19:42.917Z,2.90
2023-04-15T21:22:10.919Z,2.60
2023-04-15T21:24:38.728Z,2.50
2023-04-15T21:27:06.451Z,2.40
2023-04-15T21:29:34.256Z,2.90
2023-04-15T21:32:02.052Z,2.70
2023-04-15T21:34:30.189Z,2.50
2023-04-15T21:36:57.830Z,2.70
2023-04-15T21:39:25.906Z,2.50
2023-04-15T21:41:53.633Z,3.10
2023-04-15T21:44:21.366Z,2.90
2023-04-15T21:46:49.137Z,2.60
2023-04-15T21:49:17.158Z,2.70
2023-04-15T21:51:45.779Z,2.60
2023-04-15T21:54:13.803Z,2.50
2023-04-15T21:56:42.623Z,3.30
2023-04-15T21:59:10.614Z,3.40
2023-04-15T22:01:38.458Z,2.70
2023-04-15T22:04:07.707Z,2.90
2023-04-15T22:06:35.620Z,3.10
2023-04-15T22:09:03.486Z,3.60
2023-04-15T22:11:32.300Z,3.10
2023-04-15T22:13:59.921Z,2.70
2023-04-15T22:16:28.187Z,3.50
2023-04-15T22:18:56.206Z,2.80
2023-04-15T22:21:24.061Z,3.20
2023-04-15T22:23:52.241Z,2.80
2023-04-15T22:26:19.910Z,2.60
2023-04-15T22:28:47.583Z,2.90
2023-04-15T22:31:15.425Z,3.10
2023-04-15T22:33:43.166Z,2.90
2023-04-15T22:36:11.234Z,2.60
2023-04-15T22:38:38.902Z,3.50
2023-04-15T22:41:06.756Z,2.70
2023-04-15T22:43:34.417Z,4.50
2023-04-15T22:46:02.079Z,10.70
2023-04-15T22:48:29.948Z,9.90
2023-04-15T22:50:57.564Z,3.50
2023-04-15T22:53:25.359Z,3.40
2023-04-15T22:55:54.038Z,3.10
2023-04-15T22:58:21.695Z,2.90
2023-04-15T23:00:50.289Z,2.80
2023-04-15T23:03:18.089Z,3.00
2023-04-15T23:05:46.212Z,3.10
2023-04-15T23:08:13.869Z,3.50
2023-04-15T23:10:41.625Z,3.20
2023-04-15T23:13:09.259Z,3.50
2023-04-15T23:15:37.095Z,3.60
2023-04-15T23:18:04.882Z,3.60
2023-04-15T23:20:33.931Z,3.70
2023-04-15T23:23:01.686Z,3.60
2023-04-15T23:25:29.379Z,3.30
2023-04-15T23:27:57.053Z,3.30
2023-04-15T23:30:24.781Z,7.50
2023-04-15T23:32:52.633Z,4.10
2023-04-15T23:35:21.077Z,4.30
2023-04-15T23:37:48.697Z,3.70
2023-04-15T23:40:16.555Z,3.90
2023-04-15T23:42:44.520Z,3.50
2023-04-15T23:45:12.687Z,3.40
2023-04-15T23:47:40.405Z,4.40
2023-04-15T23:50:09.070Z,4.10
2023-04-15T23:52:37.063Z,4.00
2023-04-15T23:55:05.049Z,4.10
2023-04-15T23:57:32.721Z,3.70
